createdAt,value
2022-10-26T00:00:26.780Z,10.02
2022-10-26T00:03:37.950Z,10.06
2022-10-26T00:06:46.099Z,10.09
2022-10-26T00:09:54.336Z,10.09
2022-10-26T00:13:04.569Z,10.16
2022-10-26T00:16:18.141Z,10.17
2022-10-26T00:19:28.368Z,10.12
2022-10-26T00:22:36.841Z,10.16
2022-10-26T00:25:45.541Z,10.20
2022-10-26T00:28:57.014Z,10.23
2022-10-26T00:32:06.653Z,10.28
2022-10-26T00:35:22.933Z,10.26
2022-10-26T00:38:32.611Z,10.24
2022-10-26T00:41:41.637Z,10.27
2022-10-26T00:45:05.611Z,10.28
2022-10-26T00:48:23.585Z,10.31
2022-10-26T00:51:39.022Z,10.41
2022-10-26T00:54:47.653Z,10.53
2022-10-26T00:57:56.824Z,10.55
2022-10-26T01:01:05.354Z,10.50
2022-10-26T01:04:15.710Z,10.41
2022-10-26T01:07:27.348Z,10.29
2022-10-26T01:10:38.892Z,10.49
2022-10-26T01:13:49.426Z,10.59
2022-10-26T01:18:00.024Z,10.65
2022-10-26T01:21:41.811Z,10.66
2022-10-26T01:25:09.738Z,10.67
2022-10-26T01:28:43.571Z,10.76
2022-10-26T01:32:01.116Z,10.74
2022-10-26T01:35:15.623Z,10.86
2022-10-26T01:38:33.305Z,10.83
2022-10-26T01:41:49.031Z,10.85
2022-10-26T01:45:03.958Z,10.90
2022-10-26T01:48:18.753Z,10.91
2022-10-26T01:51:29.573Z,10.90
2022-10-26T01:54:38.826Z,11.02
2022-10-26T01:57:47.341Z,11.06
2022-10-26T02:01:10.923Z,11.03
2022-10-26T02:04:40.505Z,11.18
2022-10-26T02:08:01.205Z,11.03
2022-10-26T02:11:25.637Z,11.11
2022-10-26T02:14:49.225Z,11.10
2022-10-26T02:18:05.354Z,11.05
2022-10-26T02:21:23.538Z,10.86
2022-10-26T02:24:34.720Z,10.93
2022-10-26T02:27:48.989Z,10.96
2022-10-26T02:31:01.973Z,11.09
2022-10-26T02:34:15.564Z,11.13
2022-10-26T02:37:28.600Z,11.15
2022-10-26T02:40:38.887Z,11.34
2022-10-26T02:43:58.117Z,11.08
2022-10-26T02:47:20.654Z,11.18
2022-10-26T02:50:43.116Z,11.26
2022-10-26T02:54:00.198Z,11.19
2022-10-26T02:57:16.182Z,11.34
2022-10-26T03:00:24.490Z,11.41
2022-10-26T03:03:33.188Z,11.36
2022-10-26T03:06:42.659Z,11.38
2022-10-26T03:09:52.633Z,11.41
2022-10-26T03:13:00.807Z,11.40
2022-10-26T03:16:11.102Z,11.46
2022-10-26T03:19:19.802Z,11.62
2022-10-26T03:22:28.055Z,11.63
2022-10-26T03:25:37.556Z,11.75
2022-10-26T03:28:47.287Z,11.57
2022-10-26T03:31:55.663Z,11.49
2022-10-26T03:35:04.078Z,11.53
2022-10-26T03:38:15.949Z,11.56
2022-10-26T03:41:26.925Z,11.51
2022-10-26T03:44:35.097Z,11.39
2022-10-26T03:47:48.006Z,11.58
2022-10-26T03:50:59.377Z,11.66
2022-10-26T03:54:09.377Z,11.63
2022-10-26T03:57:19.829Z,11.69
2022-10-26T04:00:27.991Z,11.82
2022-10-26T04:03:36.231Z,11.73
2022-10-26T04:09:57.718Z,11.59
2022-10-26T04:13:07.804Z,11.77
2022-10-26T04:16:16.148Z,11.70
2022-10-26T04:19:24.923Z,11.69
2022-10-26T04:22:36.800Z,11.75
2022-10-26T04:25:49.014Z,11.78
2022-10-26T04:29:06.788Z,11.84
2022-10-26T04:32:15.423Z,11.85
2022-10-26T04:35:23.906Z,11.89
2022-10-26T04:38:32.292Z,11.95
2022-10-26T04:41:40.511Z,11.94
2022-10-26T04:44:51.282Z,11.98
2022-10-26T04:48:06.377Z,12.01
2022-10-26T04:51:14.786Z,12.14
2022-10-26T04:54:23.200Z,12.22
2022-10-26T04:57:31.419Z,12.20
2022-10-26T05:00:41.254Z,12.12
2022-10-26T05:03:52.445Z,12.08
2022-10-26T05:07:01.713Z,11.96
2022-10-26T05:10:11.606Z,11.74
2022-10-26T05:13:22.009Z,11.93
2022-10-26T05:16:31.976Z,11.98
2022-10-26T05:19:40.483Z,12.20
2022-10-26T05:22:54.387Z,12.23
2022-10-26T05:26:02.852Z,12.43
2022-10-26T05:29:11.323Z,12.81
2022-10-26T05:32:20.954Z,12.88
2022-10-26T05:35:29.635Z,12.89
2022-10-26T05:38:37.792Z,13.00
2022-10-26T05:41:45.937Z,13.19
2022-10-26T05:44:54.385Z,13.40
2022-10-26T05:48:03.934Z,13.35
2022-10-26T05:51:12.592Z,13.15
2022-10-26T05:54:21.025Z,12.95
2022-10-26T05:57:33.663Z,12.87
2022-10-26T06:00:59.915Z,12.90
2022-10-26T06:04:30.402Z,12.77
2022-10-26T06:07:39.544Z,12.72
2022-10-26T06:10:49.138Z,12.92
2022-10-26T06:14:00.531Z,12.88
2022-10-26T06:17:27.147Z,12.89
2022-10-26T06:20:56.168Z,12.83
2022-10-26T06:24:12.013Z,12.75
2022-10-26T06:27:37.286Z,12.64
2022-10-26T06:30:45.729Z,12.66
2022-10-26T06:34:00.361Z,12.54
2022-10-26T06:37:11.501Z,12.52
2022-10-26T06:40:20.971Z,12.60
2022-10-26T06:43:33.359Z,12.48
2022-10-26T06:46:49.583Z,12.41
2022-10-26T06:50:07.548Z,12.55
2022-10-26T06:53:28.505Z,12.54
2022-10-26T06:56:38.059Z,12.67
2022-10-26T06:59:52.118Z,12.64
2022-10-26T07:03:00.369Z,12.78
2022-10-26T07:06:10.741Z,12.80
2022-10-26T07:09:20.505Z,12.88
2022-10-26T07:12:32.173Z,12.89
2022-10-26T07:15:42.882Z,13.11
2022-10-26T07:18:51.038Z,13.02
2022-10-26T07:22:01.173Z,12.94
2022-10-26T07:25:12.334Z,13.02
2022-10-26T07:28:20.820Z,12.99
2022-10-26T07:31:29.334Z,13.06
2022-10-26T07:34:38.020Z,13.27
2022-10-26T07:37:46.182Z,13.31
2022-10-26T07:40:55.965Z,13.52
2022-10-26T07:44:04.420Z,13.50
2022-10-26T07:47:13.027Z,13.58
2022-10-26T07:50:21.528Z,13.57
2022-10-26T07:53:30.022Z,13.66
2022-10-26T07:56:39.861Z,13.66
2022-10-26T07:59:48.037Z,13.73
2022-10-26T08:02:56.575Z,13.78
2022-10-26T08:06:06.109Z,13.86
2022-10-26T08:09:14.665Z,13.93
2022-10-26T08:12:24.288Z,13.93
2022-10-26T08:15:32.477Z,13.90
2022-10-26T08:18:41.022Z,13.90
2022-10-26T08:21:49.643Z,13.95
2022-10-26T08:24:58.165Z,14.10
2022-10-26T08:28:07.881Z,14.45
2022-10-26T08:31:16.077Z,14.93
2022-10-26T08:34:24.334Z,15.15
2022-10-26T08:37:32.782Z,15.17
2022-10-26T08:40:44.611Z,15.04
2022-10-26T08:43:59.937Z,14.93
2022-10-26T08:47:15.710Z,14.91
2022-10-26T08:50:32.635Z,14.69
2022-10-26T08:53:48.935Z,15.03
2022-10-26T08:57:02.094Z,15.53
2022-10-26T09:00:20.331Z,15.85
2022-10-26T09:03:29.633Z,15.85
2022-10-26T09:06:58.532Z,15.80
2022-10-26T09:10:32.761Z,15.84
2022-10-26T09:13:58.870Z,15.85
2022-10-26T09:17:24.462Z,15.98
2022-10-26T09:21:11.242Z,15.96
2022-10-26T09:24:29.968Z,16.05
2022-10-26T09:27:47.289Z,16.27
2022-10-26T09:31:00.354Z,16.44
2022-10-26T09:34:20.719Z,16.56
2022-10-26T09:37:36.666Z,16.71
2022-10-26T09:40:56.449Z,17.10
2022-10-26T09:44:14.087Z,17.37
2022-10-26T09:47:34.981Z,17.61
2022-10-26T09:50:51.628Z,17.77
2022-10-26T09:54:01.872Z,17.82
2022-10-26T09:57:15.333Z,18.19
2022-10-26T10:00:26.936Z,18.65
2022-10-26T10:03:35.253Z,19.56
2022-10-26T10:06:46.451Z,19.73
2022-10-26T10:10:15.662Z,19.61
2022-10-26T10:13:27.281Z,19.93
2022-10-26T10:16:36.358Z,20.23
2022-10-26T10:19:44.862Z,19.92
2022-10-26T10:22:59.965Z,19.56
2022-10-26T10:26:12.378Z,19.26
2022-10-26T10:29:20.587Z,19.26
2022-10-26T10:32:35.771Z,19.20
2022-10-26T10:35:55.513Z,19.31
2022-10-26T10:39:34.508Z,19.27
2022-10-26T10:42:45.269Z,19.34
2022-10-26T10:45:59.663Z,19.19
2022-10-26T10:49:22.177Z,19.18
2022-10-26T10:52:34.234Z,19.10
2022-10-26T10:56:00.184Z,19.07
2022-10-26T10:59:39.996Z,18.99
2022-10-26T11:03:19.981Z,18.94
2022-10-26T11:06:32.509Z,18.96
2022-10-26T11:09:47.904Z,18.96
2022-10-26T11:13:03.021Z,18.77
2022-10-26T11:16:18.866Z,18.91
2022-10-26T11:19:37.034Z,19.11
2022-10-26T11:23:06.278Z,18.89
2022-10-26T11:26:23.415Z,19.00
2022-10-26T11:29:48.577Z,19.28
2022-10-26T11:33:05.227Z,19.43
2022-10-26T11:41:34.546Z,19.78
2022-10-26T11:44:53.256Z,19.67
2022-10-26T11:48:15.318Z,19.65
2022-10-26T11:51:40.412Z,19.34
2022-10-26T11:54:55.519Z,19.19
2022-10-26T11:58:05.556Z,19.04
2022-10-26T12:01:18.043Z,19.11
2022-10-26T12:04:33.913Z,19.15
2022-10-26T12:07:49.152Z,18.89
2022-10-26T12:14:30.468Z,18.50
2022-10-26T12:17:51.062Z,18.28
2022-10-26T12:21:08.111Z,18.18
2022-10-26T12:24:35.443Z,18.13
2022-10-26T12:27:58.387Z,18.09
2022-10-26T12:31:44.425Z,18.02
2022-10-26T12:35:04.164Z,18.05
2022-10-26T12:39:00.898Z,18.19
2022-10-26T12:42:29.478Z,18.33
2022-10-26T12:45:37.916Z,18.49
2022-10-26T12:48:48.583Z,18.72
2022-10-26T12:51:59.180Z,19.02
2022-10-26T12:55:51.891Z,19.16
2022-10-26T12:59:26.338Z,19.43
2022-10-26T13:02:56.067Z,19.52
2022-10-26T13:06:48.199Z,19.54
2022-10-26T13:10:07.896Z,19.63
2022-10-26T13:13:25.397Z,19.66
2022-10-26T13:16:35.261Z,19.70
2022-10-26T13:19:47.133Z,19.70
2022-10-26T13:22:55.968Z,19.63
2022-10-26T13:26:21.184Z,19.63
2022-10-26T13:29:31.911Z,19.59
2022-10-26T13:32:49.792Z,19.49
2022-10-26T13:36:01.102Z,19.40
2022-10-26T13:39:18.358Z,19.27
2022-10-26T13:45:56.804Z,19.10
2022-10-26T13:49:16.190Z,19.03
2022-10-26T13:52:34.187Z,19.05
2022-10-26T13:55:52.966Z,18.97
2022-10-26T13:59:11.379Z,18.99
2022-10-26T14:02:25.551Z,19.00
2022-10-26T14:05:33.813Z,18.93
2022-10-26T14:08:44.538Z,18.90
2022-10-26T14:11:58.178Z,18.87
2022-10-26T14:15:11.561Z,18.96
2022-10-26T14:18:26.559Z,18.96
2022-10-26T14:21:35.108Z,18.95
2022-10-26T14:24:53.070Z,18.99
2022-10-26T14:28:04.739Z,19.04
2022-10-26T14:31:21.740Z,19.04
2022-10-26T14:34:31.661Z,18.92
2022-10-26T14:37:48.214Z,18.80
2022-10-26T14:40:58.458Z,18.70
2022-10-26T14:44:22.447Z,18.60
2022-10-26T14:47:36.236Z,18.50
2022-10-26T14:50:45.050Z,18.37
2022-10-26T14:53:57.369Z,18.28
2022-10-26T14:57:08.918Z,18.15
2022-10-26T15:00:20.602Z,18.04
2022-10-26T15:03:30.804Z,17.86
2022-10-26T15:06:48.283Z,17.79
2022-10-26T15:09:56.777Z,17.69
2022-10-26T15:13:10.757Z,17.36
2022-10-26T15:16:21.830Z,17.32
2022-10-26T15:19:31.728Z,17.25
2022-10-26T15:22:41.453Z,17.08
2022-10-26T15:25:56.822Z,17.00
2022-10-26T15:29:05.295Z,16.93
2022-10-26T15:32:30.755Z,16.94
2022-10-26T15:35:40.730Z,16.70
2022-10-26T15:38:50.000Z,16.68
2022-10-26T15:42:00.105Z,16.65
2022-10-26T15:45:18.385Z,16.62
2022-10-26T15:48:29.933Z,16.51
2022-10-26T15:51:39.990Z,16.44
2022-10-26T15:54:48.418Z,16.39
2022-10-26T15:57:56.687Z,16.27
2022-10-26T16:01:05.284Z,16.13
2022-10-26T16:04:13.717Z,16.09
2022-10-26T16:07:28.043Z,16.07
2022-10-26T16:10:36.619Z,16.05
2022-10-26T16:13:45.146Z,16.00
2022-10-26T16:16:53.474Z,16.24
2022-10-26T16:20:05.333Z,16.02
2022-10-26T16:23:18.689Z,15.82
2022-10-26T16:26:27.004Z,15.72
2022-10-26T16:29:35.467Z,15.67
2022-10-26T16:32:44.409Z,15.60
2022-10-26T16:35:57.719Z,15.53
2022-10-26T16:39:08.253Z,15.51
2022-10-26T16:42:16.732Z,15.46
2022-10-26T16:45:24.977Z,15.41
2022-10-26T16:48:33.447Z,15.35
2022-10-26T16:51:41.775Z,15.27
2022-10-26T16:54:51.334Z,15.23
2022-10-26T16:57:59.632Z,15.18
2022-10-26T17:01:09.297Z,15.17
2022-10-26T17:04:17.605Z,15.14
2022-10-26T17:07:25.921Z,15.12
2022-10-26T17:10:35.793Z,15.12
2022-10-26T17:13:45.160Z,15.07
2022-10-26T17:16:53.543Z,15.11
2022-10-26T17:20:02.723Z,15.07
2022-10-26T17:23:11.408Z,15.12
2022-10-26T17:26:21.193Z,15.08
2022-10-26T17:29:29.780Z,14.99
2022-10-26T17:32:38.109Z,14.94
2022-10-26T17:35:46.767Z,14.91
2022-10-26T17:38:57.556Z,14.91
2022-10-26T17:42:07.291Z,14.86
2022-10-26T17:45:15.841Z,14.80
2022-10-26T17:48:24.388Z,14.71
2022-10-26T17:51:32.702Z,14.68
2022-10-26T17:54:41.159Z,14.51
2022-10-26T17:57:51.064Z,14.42
2022-10-26T18:01:03.943Z,14.29
2022-10-26T18:04:12.391Z,14.22
2022-10-26T18:07:20.807Z,14.13
2022-10-26T18:10:44.627Z,14.01
2022-10-26T18:13:54.871Z,13.89
2022-10-26T18:17:03.471Z,13.79
2022-10-26T18:20:12.671Z,13.66
2022-10-26T18:23:21.120Z,13.54
2022-10-26T18:26:31.756Z,13.43
2022-10-26T18:29:41.472Z,13.37
2022-10-26T18:32:51.308Z,13.28
2022-10-26T18:36:04.409Z,13.22
2022-10-26T18:39:13.371Z,13.14
2022-10-26T18:42:21.986Z,13.12
2022-10-26T18:45:33.168Z,13.00
2022-10-26T18:48:42.845Z,12.94
2022-10-26T18:51:51.542Z,12.87
2022-10-26T18:54:59.743Z,12.81
2022-10-26T18:58:10.686Z,12.74
2022-10-26T19:01:24.038Z,12.69
2022-10-26T19:04:32.456Z,12.65
2022-10-26T19:07:40.728Z,12.58
2022-10-26T19:10:50.025Z,12.54
2022-10-26T19:13:58.983Z,12.51
2022-10-26T19:17:10.479Z,12.45
2022-10-26T19:20:19.031Z,12.52
2022-10-26T19:23:32.777Z,12.45
2022-10-26T19:26:43.686Z,12.37
2022-10-26T19:29:52.403Z,12.31
2022-10-26T19:33:02.561Z,12.27
2022-10-26T19:36:13.930Z,12.18
2022-10-26T19:39:22.618Z,12.20
2022-10-26T19:42:30.885Z,12.13
2022-10-26T19:45:39.736Z,12.09
2022-10-26T19:48:52.978Z,12.09
2022-10-26T19:52:02.567Z,12.17
2022-10-26T19:55:11.290Z,12.05
2022-10-26T19:58:19.629Z,11.95
2022-10-26T20:01:28.598Z,11.83
2022-10-26T20:04:40.673Z,11.80
2022-10-26T20:07:48.928Z,11.81
2022-10-26T20:10:58.901Z,11.78
2022-10-26T20:14:08.132Z,11.84
2022-10-26T20:17:16.349Z,11.83
2022-10-26T20:20:26.155Z,11.81
2022-10-26T20:23:34.636Z,11.81
2022-10-26T20:26:42.826Z,11.80
2022-10-26T20:29:51.353Z,11.82
2022-10-26T20:33:00.455Z,11.86
2022-10-26T20:36:10.383Z,11.84
2022-10-26T20:39:19.823Z,11.84
2022-10-26T20:42:30.138Z,11.80
2022-10-26T20:45:39.081Z,11.73
2022-10-26T20:48:48.754Z,11.64
2022-10-26T20:52:20.750Z,11.64
2022-10-26T20:55:37.217Z,11.54
2022-10-26T20:58:51.136Z,11.74
2022-10-26T21:01:59.567Z,11.69
2022-10-26T21:05:08.716Z,11.70
2022-10-26T21:08:18.888Z,11.62
2022-10-26T21:11:27.653Z,11.60
2022-10-26T21:14:40.691Z,11.51
2022-10-26T21:17:50.691Z,11.61
2022-10-26T21:21:00.087Z,11.71
2022-10-26T21:24:10.024Z,11.36
2022-10-26T21:27:18.524Z,11.21
2022-10-26T21:30:27.845Z,11.13
2022-10-26T21:33:36.502Z,11.05
2022-10-26T21:36:45.060Z,11.12
2022-10-26T21:39:54.693Z,11.14
2022-10-26T21:43:03.124Z,11.27
2022-10-26T21:46:11.883Z,11.17
2022-10-26T21:49:20.548Z,11.19
2022-10-26T21:52:28.740Z,11.11
2022-10-26T21:55:38.691Z,10.96
2022-10-26T21:58:48.228Z,10.86
2022-10-26T22:01:56.874Z,10.78
2022-10-26T22:05:06.358Z,10.89
2022-10-26T22:08:15.647Z,10.87
2022-10-26T22:11:26.628Z,10.83
2022-10-26T22:14:34.916Z,10.78
2022-10-26T22:17:43.683Z,10.79
2022-10-26T22:20:58.736Z,10.88
2022-10-26T22:24:07.991Z,10.80
2022-10-26T22:27:17.775Z,10.75
2022-10-26T22:30:27.327Z,10.70
2022-10-26T22:33:36.427Z,10.72
2022-10-26T22:36:45.362Z,10.67
2022-10-26T22:39:53.831Z,10.66
2022-10-26T22:43:03.620Z,10.76
2022-10-26T22:46:14.430Z,10.62
2022-10-26T22:49:22.680Z,10.57
2022-10-26T22:52:31.202Z,10.59
2022-10-26T22:55:42.618Z,10.59
2022-10-26T22:58:53.023Z,10.58
2022-10-26T23:02:01.554Z,10.61
2022-10-26T23:05:16.988Z,10.56
2022-10-26T23:08:26.244Z,10.49
2022-10-26T23:11:35.292Z,10.57
2022-10-26T23:14:45.086Z,10.48
2022-10-26T23:17:55.136Z,10.41
2022-10-26T23:21:04.030Z,10.37
2022-10-26T23:24:12.460Z,10.39
2022-10-26T23:27:20.992Z,10.37
2022-10-26T23:30:30.600Z,10.28
2022-10-26T23:33:38.919Z,10.27
2022-10-26T23:36:48.013Z,10.27
2022-10-26T23:39:56.208Z,10.25
2022-10-26T23:43:05.148Z,10.40
2022-10-26T23:46:15.092Z,10.39
2022-10-26T23:49:23.660Z,10.46
2022-10-26T23:52:31.910Z,10.39
2022-10-26T23:55:40.749Z,10.29
2022-10-26T23:58:51.562Z,10.24
